Météo Nord-Pas-de-Calais   La météo au plus près de chez vous

Station météorologique

Observations météo à Bernay (27056)

27056003 166 m Dernier relevé à 10:06
19.6°C
Humidité 89 % Vent 15.1 km/h

Journée consultée

Vendredi 4 Septembre 2026

Synthèse de la journée

Périodes de référence en UTC

Température maximale

20.4°C

à 09:36

06h 06h

Température minimale

17.3°C

à 06:54

18h 18h

Rafale maximale

31 km/h

à 09:48

00h 00h

Précipitations

0 mm

Cumul quotidien

06h 06h

Ensoleillement

1h 58 mins

Durée quotidienne

00h 00h

Graphiques de la journée

Heure locale Réduire

Données détaillées

Relevés météo

Pas de 6 minutes Afficher les relevés infra-horaires
Relevés météo détaillés à Bernay pour le Vendredi 4 Septembre 2026
Heure Température °C Point de rosée °C Humidité % Vent moyen (raf.), km/h Précipitations mm Ensoleillement min Rayonnement global W/m²
10:06 19.6 °C 17.2 °C 86 % 19 km/h (31 km/h) 0 mm0 mm 0 min 71.1 W/m²
10:00 19.7 °C 17.5 °C 87 % 18 km/h (28 km/h) 0 mm0 mm 3 min 92.8 W/m²
09:54 19.6 °C 17.4 °C 87 % 21 km/h (31 km/h) 0 mm0 mm 0 min 74.6 W/m²
09:48 19.6 °C 17.2 °C 86 % 20 km/h (31 km/h) 0 mm0 mm 0 min 66.9 W/m²
09:42 20 °C 17.4 °C 85 % 17 km/h (27 km/h) 0 mm0 mm 3 min 83.4 W/m²
09:36 20.4 °C 17.8 °C 85 % 13 km/h (26 km/h) 0 mm0 mm 6 min 126 W/m²
09:30 20.2 °C 17.8 °C 86 % 13 km/h (20 km/h) 0 mm0 mm 6 min 115.6 W/m²
09:24 20 °C 17.8 °C 87 % 14 km/h (24 km/h) 0 mm0 mm 6 min 99.4 W/m²
09:18 19.7 °C 17.7 °C 88 % 15 km/h (25 km/h) 0 mm0 mm 6 min 92.3 W/m²
09:12 19.5 °C 17.6 °C 89 % 15 km/h (25 km/h) 0 mm0 mm 6 min 85.9 W/m²
09:06 19.3 °C 17.4 °C 89 % 15 km/h (24 km/h) 0 mm0 mm 6 min 79.7 W/m²
09:00 19.2 °C 17.7 °C 91 % 14 km/h (24 km/h) 0 mm0 mm 6 min 73.7 W/m²
08:54 18.9 °C 17.4 °C 91 % 13 km/h (24 km/h) 0 mm0 mm 6 min 68 W/m²
08:48 18.8 °C 17.5 °C 92 % 12 km/h (19 km/h) 0 mm0 mm 6 min 63.2 W/m²
08:42 18.6 °C 17.4 °C 93 % 12 km/h (18 km/h) 0 mm0 mm 6 min 57.1 W/m²
08:36 18.5 °C 17.5 °C 94 % 10 km/h (18 km/h) 0 mm0 mm 6 min 50.4 W/m²
08:30 18.3 °C 17.5 °C 95 % 9 km/h (15 km/h) 0 mm0 mm 6 min 44.7 W/m²
08:24 18.2 °C 17.4 °C 95 % 9 km/h (18 km/h) 0 mm0 mm 5 min 40.6 W/m²
08:18 18 °C 17.4 °C 96 % 9 km/h (18 km/h) 0 mm0 mm 6 min 35.9 W/m²
08:12 17.8 °C 17.2 °C 96 % 9 km/h (16 km/h) 0 mm0 mm 6 min 26.2 W/m²
08:06 17.7 °C 17.2 °C 97 % 8 km/h (15 km/h) 0 mm0 mm 6 min 21.3 W/m²
08:00 17.6 °C 17.1 °C 97 % 8 km/h (15 km/h) 0 mm0 mm 5 min 16.7 W/m²
07:54 17.6 °C 17.1 °C 97 % 8 km/h (14 km/h) 0 mm0 mm 6 min 14.9 W/m²
07:48 17.4 °C 17.1 °C 98 % 8 km/h (14 km/h) 0 mm0 mm 6 min 10.4 W/m²
07:42 17.4 °C 16.9 °C 97 % 7 km/h (14 km/h) 0 mm0 mm 0 min 4.7 W/m²
07:36 17.4 °C 16.9 °C 97 % 9 km/h (16 km/h) 0 mm0 mm 0 min 0.2 W/m²
07:30 17.4 °C 16.9 °C 97 % 10 km/h (22 km/h) 0 mm0 mm 0 min 0 W/m²
07:24 17.5 °C 17 °C 97 % 11 km/h (22 km/h) 0 mm0 mm 0 min 0 W/m²
07:18 17.5 °C 17 °C 97 % 11 km/h (20 km/h) 0 mm0 mm 0 min 0 W/m²
07:12 17.4 °C 17.1 °C 98 % 11 km/h (20 km/h) 0 mm0 mm 0 min 0 W/m²
07:06 17.4 °C 17.1 °C 98 % 10 km/h (19 km/h) 0 mm0 mm 0 min 0 W/m²
07:00 17.3 °C 17 °C 98 % 9 km/h (17 km/h) 0 mm0 mm 0 min 0 W/m²
06:54 17.3 °C 17 °C 98 % 9 km/h (17 km/h) 0 mm0 mm 0 min 0 W/m²
06:48 17.4 °C 17.1 °C 98 % 8 km/h (15 km/h) 0 mm0 mm 0 min 0 W/m²
06:42 17.5 °C 17.2 °C 98 % 8 km/h (13 km/h) 0 mm0 mm 0 min 0 W/m²
06:36 17.6 °C 17.1 °C 97 % 7 km/h (13 km/h) 0 mm0 mm 0 min 0 W/m²
06:30 17.7 °C 17.2 °C 97 % 9 km/h (18 km/h) 0 mm0 mm 0 min 0 W/m²
06:24 17.8 °C 17.5 °C 98 % 11 km/h (18 km/h) 0 mm0 mm 0 min 0 W/m²
06:18 17.8 °C 17.5 °C 98 % 11 km/h (20 km/h) 0 mm0 mm 0 min 0 W/m²
06:12 17.9 °C 17.6 °C 98 % 12 km/h (20 km/h) 0 mm0 mm 0 min 0 W/m²
06:06 17.9 °C 17.6 °C 98 % 12 km/h (19 km/h) 0 mm0 mm 0 min 0 W/m²
06:00 17.8 °C 17.5 °C 98 % 12 km/h (21 km/h) 0 mm0 mm 0 min 0 W/m²
05:54 17.8 °C 17.5 °C 98 % 12 km/h (21 km/h) 0 mm0 mm 0 min 0 W/m²
05:48 17.8 °C 17.5 °C 98 % 11 km/h (20 km/h) 0 mm0 mm 0 min 0 W/m²
05:42 17.7 °C 17.4 °C 98 % 9 km/h (19 km/h) 0 mm0 mm 0 min 0 W/m²
05:36 17.6 °C 17.3 °C 98 % 7 km/h (15 km/h) 0 mm0 mm 0 min 0 W/m²
05:30 17.6 °C 17.3 °C 98 % 5 km/h (10 km/h) 0 mm0 mm 0 min 0 W/m²
05:24 17.5 °C 17.2 °C 98 % 4 km/h (8 km/h) 0 mm0 mm 0 min 0 W/m²
05:18 17.5 °C 17.2 °C 98 % 5 km/h (8 km/h) 0 mm0 mm 0 min 0 W/m²
05:12 17.5 °C 17.2 °C 98 % 6 km/h (8 km/h) 0 mm0 mm 0 min 0 W/m²
05:06 17.5 °C 17 °C 97 % 6 km/h (10 km/h) 0 mm0 mm 0 min 0 W/m²
05:00 17.6 °C 17.3 °C 98 % 6 km/h (11 km/h) 0 mm0 mm 0 min 0 W/m²
04:54 17.6 °C 17.1 °C 97 % 6 km/h (11 km/h) 0 mm0 mm 0 min 0 W/m²
04:48 17.8 °C 17.3 °C 97 % 6 km/h (11 km/h) 0 mm0 mm 0 min 0 W/m²
04:42 17.8 °C 17.3 °C 97 % 6 km/h (12 km/h) 0 mm0 mm 0 min 0 W/m²
04:36 17.9 °C 17.4 °C 97 % 7 km/h (12 km/h) 0 mm0 mm 0 min 0 W/m²
04:30 17.9 °C 17.4 °C 97 % 6 km/h (10 km/h) 0 mm0 mm 0 min 0 W/m²
04:24 17.9 °C 17.3 °C 96 % 5 km/h (12 km/h) 0 mm0 mm 0 min 0 W/m²
04:18 18 °C 17.4 °C 96 % 6 km/h (12 km/h) 0 mm0 mm 0 min 0 W/m²
04:12 18.1 °C 17.5 °C 96 % 5 km/h (11 km/h) 0 mm0 mm 0 min 0 W/m²
04:06 18.2 °C 17.6 °C 96 % 6 km/h (12 km/h) 0 mm0 mm 0 min 0 W/m²
04:00 18.3 °C 17.7 °C 96 % 7 km/h (12 km/h) 0 mm0 mm 0 min 0 W/m²
03:54 18.2 °C 17.6 °C 96 % 6 km/h (11 km/h) 0 mm0 mm 0 min 0 W/m²
03:48 18.2 °C 17.6 °C 96 % 6 km/h (13 km/h) 0 mm0 mm 0 min 0 W/m²
03:42 18.2 °C 17.6 °C 96 % 7 km/h (10 km/h) 0 mm0 mm 0 min 0 W/m²
03:36 18.3 °C 17.5 °C 95 % 8 km/h (12 km/h) 0 mm0 mm 0 min 0 W/m²
03:30 18.3 °C 17.7 °C 96 % 8 km/h (13 km/h) 0 mm0 mm 0 min 0 W/m²
03:24 18.3 °C 17.5 °C 95 % 9 km/h (15 km/h) 0 mm0 mm 0 min 0 W/m²
03:18 18.4 °C 17.6 °C 95 % 9 km/h (13 km/h) 0 mm0 mm 0 min 0 W/m²
03:12 18.3 °C 17.5 °C 95 % 8 km/h (13 km/h) 0 mm0 mm 0 min 0 W/m²
03:06 18.3 °C 17.5 °C 95 % 7 km/h (11 km/h) 0 mm0 mm 0 min 0 W/m²
03:00 18.5 °C 17.5 °C 94 % 7 km/h (9 km/h) 0 mm0 mm 0 min 0 W/m²
02:54 18.7 °C 17.5 °C 93 % 7 km/h (10 km/h) 0 mm0 mm 0 min 0 W/m²
02:48 18.9 °C 17.7 °C 93 % 7 km/h (12 km/h) 0 mm0 mm 0 min 0 W/m²
02:42 19 °C 17.8 °C 93 % 7 km/h (12 km/h) 0 mm0 mm 0 min 0 W/m²
02:36 19 °C 17.8 °C 93 % 7 km/h (12 km/h) 0 mm0 mm 0 min 0 W/m²
02:30 19 °C 18 °C 94 % 8 km/h (12 km/h) 0 mm0 mm 0 min 0 W/m²
02:24 19 °C 18.2 °C 95 % 7 km/h (10 km/h) 0 mm0 mm 0 min 0 W/m²
02:18 18.9 °C 18.2 °C 96 % 7 km/h (11 km/h) 0 mm0 mm 0 min 0 W/m²
02:12 18.7 °C 18.2 °C 97 % 6 km/h (10 km/h) 0 mm0 mm 0 min 0 W/m²
02:06 18.6 °C 18.1 °C 97 % 6 km/h (10 km/h) 0 mm0 mm 0 min 0 W/m²
02:00 18.5 °C 18 °C 97 % 5 km/h (10 km/h) 0 mm0 mm 0 min 0 W/m²
01:54 18.5 °C 18.2 °C 98 % 5 km/h (7 km/h) 0 mm0 mm 0 min 0 W/m²
01:48 18.5 °C 18.2 °C 98 % 4 km/h (6 km/h) 0 mm0 mm 0 min 0 W/m²
01:42 18.6 °C 18.3 °C 98 % 4 km/h (6 km/h) 0 mm0 mm 0 min 0 W/m²
01:36 18.7 °C 18.4 °C 98 % 3 km/h (5 km/h) 0 mm0 mm 0 min 0 W/m²
01:30 18.8 °C 18.5 °C 98 % 3 km/h (4 km/h) 0 mm0 mm 0 min 0 W/m²
01:24 18.8 °C 18.1 °C 96 % 3 km/h (4 km/h) 0 mm0 mm 0 min 0 W/m²
01:18 18.9 °C 18.2 °C 96 % 3 km/h (4 km/h) 0 mm0 mm 0 min 0 W/m²
01:12 19 °C 18.3 °C 96 % 3 km/h (4 km/h) 0 mm0 mm 0 min 0 W/m²
01:06 19.1 °C 18.1 °C 94 % 2 km/h (4 km/h) 0 mm0 mm 0 min 0 W/m²
01:00 19.3 °C 18.3 °C 94 % 2 km/h (3 km/h) 0 mm0 mm 0 min 0 W/m²
00:54 19.5 °C 18.3 °C 93 % 3 km/h (4 km/h) 0 mm0 mm 0 min 0 W/m²
00:48 19.6 °C 18.4 °C 93 % 4 km/h (5 km/h) 0 mm0 mm 0 min 0 W/m²
00:42 19.8 °C 18.5 °C 92 % 3 km/h (5 km/h) 0 mm0 mm 0 min 0 W/m²
00:36 20.2 °C 18.9 °C 92 % 4 km/h (6 km/h) 0 mm0 mm 0 min 0 W/m²
00:30 20.3 °C 18.8 °C 91 % 5 km/h (6 km/h) 0 mm0 mm 0 min 0 W/m²
00:24 20.4 °C 18.9 °C 91 % 6 km/h (7 km/h) 0 mm0 mm 0 min 0 W/m²
00:18 20.6 °C 18.9 °C 90 % 6 km/h (7 km/h) 0 mm0 mm 0 min 0 W/m²
00:12 20.7 °C 19 °C 90 % 6 km/h (9 km/h) 0 mm0 mm 0 min 0 W/m²
00:06 20.7 °C 18.8 °C 89 % 7 km/h (9 km/h) 0 mm0 mm 0 min 0 W/m²
00:00 20.8 °C 18.9 °C 89 % 7 km/h (9 km/h) 0 mm0 mm 0 min 0 W/m²

Données via Météo-France

Relevés météo à Bernay

Cette page rassemble les observations de la station de Bernay : température, humidité, vent, précipitations et pression atmosphérique. Les graphiques facilitent le suivi de la journée, tandis que le tableau donne accès aux mesures horaires et infra-horaires disponibles.

Pour replacer ces mesures dans leur contexte, consultez la climatologie de Bernay ainsi que ses normales et records. Retrouvez aussi la carte des observations météo en temps réel.